Time;durP1;ratioP1;P1;durP2;ratioP2;P2;SDS_P1;SDS_P2;PMS_P1;PMS_P2;Temp;Humidity;BMP_temperature;BMP_pressure;BME280_temperature;BME280_humidity;BME280_pressure;Samples;Min_cycle;Max_cycle;Signal;HPM_P1;HPM_P2
2023/01/13 00:02:21;;;;;;;3.00;1.20;;;13.50;31.40;;;;;;5070427;28;20455;-74
2023/01/13 00:04:47;;;;;;;3.10;1.30;;;12.90;33.10;;;;;;5068486;28;20436;-74
2023/01/13 00:07:12;;;;;;;2.93;1.20;;;12.80;33.30;;;;;;5068910;28;20268;-74
2023/01/13 00:09:38;;;;;;;3.00;1.20;;;12.90;33.10;;;;;;5069999;28;20185;-74
2023/01/13 00:12:05;;;;;;;2.90;1.20;;;13.10;32.70;;;;;;5071086;28;20228;-74
2023/01/13 00:14:35;;;;;;;2.90;1.20;;;13.00;32.90;;;;;;5071118;28;20179;-74
2023/01/13 00:17:01;;;;;;;3.00;1.20;;;13.10;32.80;;;;;;5064350;28;20905;-74
2023/01/13 00:19:27;;;;;;;2.90;1.10;;;13.10;33.10;;;;;;5071117;28;20449;-74
2023/01/13 00:21:53;;;;;;;2.90;1.10;;;12.80;33.60;;;;;;5070934;28;20441;-74
2023/01/13 00:24:18;;;;;;;3.00;1.20;;;13.20;32.90;;;;;;5070350;28;20703;-74
2023/01/13 00:26:44;;;;;;;2.90;1.10;;;13.40;32.40;;;;;;5067925;28;20187;-74
2023/01/13 00:29:09;;;;;;;3.00;1.20;;;13.20;32.90;;;;;;5069991;28;20576;-74
2023/01/13 00:31:35;;;;;;;2.90;1.10;;;13.60;33.10;;;;;;5070543;28;20203;-74
2023/01/13 00:34:01;;;;;;;2.90;1.10;;;13.40;33.50;;;;;;5065717;28;20192;-74
2023/01/13 00:36:27;;;;;;;3.00;1.20;;;12.70;34.20;;;;;;5065109;28;20184;-74
2023/01/13 00:38:53;;;;;;;3.10;1.30;;;13.00;33.60;;;;;;5064532;28;20543;-74
2023/01/13 00:41:21;;;;;;;2.93;1.20;;;13.20;32.60;;;;;;5067977;28;20554;-74
2023/01/13 00:43:48;;;;;;;2.90;1.13;;;12.90;33.70;;;;;;5070051;28;20177;-74
2023/01/13 00:46:16;;;;;;;2.97;1.20;;;13.00;33.40;;;;;;5070820;28;20439;-74
2023/01/13 00:48:42;;;;;;;2.90;1.17;;;13.60;33.20;;;;;;5067448;28;20548;-74
2023/01/13 00:51:12;;;;;;;3.10;1.30;;;12.90;33.70;;;;;;5070407;28;20777;-74
2023/01/13 00:53:40;;;;;;;3.00;1.20;;;13.00;33.60;;;;;;5070330;28;20828;-74
2023/01/13 00:56:16;;;;;;;2.90;1.10;;;13.20;32.90;;;;;;5073807;28;20528;-74
2023/01/13 00:58:43;;;;;;;2.90;1.13;;;13.40;32.30;;;;;;5071672;28;20761;-74
2023/01/13 01:01:12;;;;;;;3.00;1.20;;;13.50;32.20;;;;;;5062210;28;20450;-74
2023/01/13 01:03:38;;;;;;;2.90;1.20;;;13.90;31.50;;;;;;5073863;28;20512;-74
2023/01/13 01:06:07;;;;;;;3.00;1.20;;;13.40;33.40;;;;;;5073228;28;20894;-74
2023/01/13 01:08:34;;;;;;;3.00;1.30;;;13.10;33.10;;;;;;5072729;28;20589;-74
2023/01/13 01:11:05;;;;;;;3.80;1.60;;;13.20;33.10;;;;;;5073366;28;20440;-74
2023/01/13 01:13:31;;;;;;;3.00;1.20;;;12.90;33.60;;;;;;5073816;28;20437;-75
2023/01/13 01:15:57;;;;;;;3.00;1.20;;;13.40;32.60;;;;;;5074353;28;20782;-74
2023/01/13 01:18:22;;;;;;;3.00;1.27;;;13.50;32.20;;;;;;5073187;28;20465;-74
2023/01/13 01:20:48;;;;;;;3.00;1.30;;;13.60;32.30;;;;;;5070077;28;20324;-74
2023/01/13 01:23:14;;;;;;;3.00;1.20;;;13.60;31.90;;;;;;5073610;28;20242;-75
2023/01/13 01:25:39;;;;;;;2.90;1.13;;;13.80;31.90;;;;;;5073905;28;20259;-75
2023/01/13 01:28:05;;;;;;;3.00;1.20;;;13.60;32.20;;;;;;5073277;28;20183;-75
2023/01/13 01:30:31;;;;;;;2.87;1.10;;;13.60;32.10;;;;;;5071538;28;20197;-75
2023/01/13 01:32:56;;;;;;;2.90;1.10;;;13.70;31.90;;;;;;5072769;28;20576;-74
2023/01/13 01:35:23;;;;;;;3.00;1.20;;;13.70;31.90;;;;;;5074149;28;20734;-75
2023/01/13 01:37:49;;;;;;;2.90;1.10;;;13.90;32.40;;;;;;5072675;28;20175;-75
2023/01/13 01:40:15;;;;;;;3.00;1.20;;;14.10;31.60;;;;;;5072165;28;20461;-75
2023/01/13 01:45:27;;;;;;;2.90;1.17;;;13.50;33.10;;;;;;5073999;28;20209;-75
2023/01/13 01:47:57;;;;;;;3.00;1.27;;;13.40;33.50;;;;;;5073951;28;20923;-75
2023/01/13 01:50:23;;;;;;;3.10;1.20;;;13.40;33.40;;;;;;5072300;28;20442;-74
2023/01/13 01:52:58;;;;;;;3.00;1.30;;;13.40;33.40;;;;;;5071185;28;20461;-74
2023/01/13 01:55:31;;;;;;;3.00;1.20;;;13.60;32.80;;;;;;5066068;28;20442;-74
2023/01/13 01:58:04;;;;;;;3.00;1.17;;;13.50;33.20;;;;;;5067418;28;20487;-74
2023/01/13 02:00:30;;;;;;;2.90;1.10;;;13.80;32.60;;;;;;5070724;28;20425;-74
2023/01/13 02:02:57;;;;;;;3.00;1.30;;;13.70;32.50;;;;;;5070354;28;21116;-74
2023/01/13 02:05:23;;;;;;;5.00;2.30;;;13.70;32.40;;;;;;5071815;28;20186;-74
2023/01/13 02:07:52;;;;;;;3.73;1.50;;;13.70;32.40;;;;;;5072787;28;20410;-75
2023/01/13 02:10:21;;;;;;;3.00;1.20;;;13.80;32.40;;;;;;5071486;28;20862;-75
2023/01/13 02:12:48;;;;;;;2.97;1.10;;;13.70;32.40;;;;;;5067538;28;20455;-75
2023/01/13 02:15:24;;;;;;;3.00;1.20;;;14.00;31.50;;;;;;5071672;28;20511;-76
2023/01/13 02:18:19;;;;;;;3.10;1.30;;;13.90;31.70;;;;;;5066007;28;20563;-74
2023/01/13 02:21:15;;;;;;;3.00;1.20;;;14.30;31.00;;;;;;5072598;28;20460;-75
2023/01/13 02:27:08;;;;;;;3.00;1.20;;;13.60;33.00;;;;;;5068864;28;20787;-75
2023/01/13 02:33:09;;;;;;;2.90;1.20;;;13.30;33.10;;;;;;5072326;28;20961;-74
2023/01/13 02:35:40;;;;;;;3.00;1.23;;;13.70;32.10;;;;;;5066842;28;20458;-74
2023/01/13 02:38:09;;;;;;;3.00;1.23;;;13.50;32.90;;;;;;5068633;28;20453;-74
2023/01/13 02:40:45;;;;;;;3.10;1.30;;;13.90;32.00;;;;;;5072566;28;20494;-74
2023/01/13 02:46:33;;;;;;;3.00;1.20;;;13.50;32.70;;;;;;5068495;28;20422;-74
2023/01/13 02:49:04;;;;;;;2.90;1.10;;;14.10;31.70;;;;;;5066258;28;20412;-74
2023/01/13 02:51:31;;;;;;;3.00;1.20;;;13.40;33.20;;;;;;5071790;28;20482;-75
2023/01/13 02:54:05;;;;;;;3.10;1.30;;;13.50;33.20;;;;;;5072755;28;20416;-74
2023/01/13 02:56:34;;;;;;;3.00;1.20;;;14.00;32.00;;;;;;5066729;28;20426;-74
2023/01/13 02:59:01;;;;;;;3.00;1.20;;;14.20;31.20;;;;;;5070737;28;20469;-74
2023/01/13 03:01:26;;;;;;;3.00;1.10;;;14.30;31.10;;;;;;5072153;28;20961;-74
2023/01/13 03:03:52;;;;;;;2.83;1.10;;;14.30;31.30;;;;;;5067550;28;20436;-74
2023/01/13 03:06:45;;;;;;;2.97;1.10;;;14.10;31.50;;;;;;5071596;28;20186;-74
2023/01/13 03:09:20;;;;;;;3.30;1.30;;;14.00;32.00;;;;;;5067864;28;20272;-74
2023/01/13 03:11:58;;;;;;;2.90;1.10;;;13.70;32.50;;;;;;5064175;28;20460;-74
2023/01/13 03:14:55;;;;;;;3.00;1.20;;;13.30;33.90;;;;;;5070976;28;20427;-74
2023/01/13 03:18:05;;;;;;;3.00;1.10;;;12.90;35.00;;;;;;5070408;28;20453;-74
2023/01/13 03:20:37;;;;;;;3.00;1.20;;;13.10;35.30;;;;;;5064733;28;20450;-74
2023/01/13 03:23:22;;;;;;;3.00;1.10;;;13.30;34.50;;;;;;5071977;28;20430;-74
2023/01/13 03:25:59;;;;;;;3.00;1.20;;;13.80;33.30;;;;;;5072211;28;20407;-74
2023/01/13 03:28:30;;;;;;;3.00;1.13;;;13.60;34.00;;;;;;5068406;28;20426;-74
2023/01/13 03:31:02;;;;;;;3.03;1.30;;;13.70;33.70;;;;;;5069187;28;20762;-74
2023/01/13 03:33:40;;;;;;;2.93;1.10;;;13.70;33.60;;;;;;5071855;28;20903;-74
2023/01/13 03:36:09;;;;;;;2.90;1.10;;;13.20;35.10;;;;;;5071984;28;20386;-74
2023/01/13 03:38:39;;;;;;;3.00;1.30;;;13.10;35.20;;;;;;5066046;28;20460;-74
2023/01/13 03:41:12;;;;;;;3.00;1.23;;;13.30;35.60;;;;;;5068111;28;20785;-74
2023/01/13 03:46:42;;;;;;;2.90;1.20;;;12.80;35.90;;;;;;5071181;28;20434;-74
2023/01/13 03:49:12;;;;;;;3.00;1.20;;;12.90;36.00;;;;;;5070554;28;20466;-74
2023/01/13 03:51:40;;;;;;;3.00;1.20;;;12.80;35.80;;;;;;5063651;28;20477;-74
2023/01/13 03:54:10;;;;;;;3.00;1.20;;;12.80;36.20;;;;;;5071501;28;20411;-74
2023/01/13 03:56:47;;;;;;;3.00;1.23;;;12.80;36.50;;;;;;5072003;28;20402;-74
2023/01/13 03:59:19;;;;;;;3.07;1.30;;;13.10;35.30;;;;;;5070767;28;20483;-74
2023/01/13 04:01:51;;;;;;;3.00;1.20;;;13.00;36.50;;;;;;5068881;28;20526;-74
2023/01/13 04:04:39;;;;;;;2.97;1.20;;;13.10;35.20;;;;;;5070850;28;20612;-74
2023/01/13 04:07:46;;;;;;;3.10;1.30;;;13.00;35.60;;;;;;5071264;28;20396;-74
2023/01/13 04:10:19;;;;;;;2.90;1.20;;;13.10;35.20;;;;;;5068550;28;20423;-74
2023/01/13 04:13:11;;;;;;;2.90;1.10;;;13.30;35.40;;;;;;5059841;28;20549;-74
2023/01/13 04:15:42;;;;;;;2.90;1.20;;;13.50;35.00;;;;;;5068459;28;20917;-74
2023/01/13 04:18:16;;;;;;;2.93;1.10;;;13.10;35.30;;;;;;5071272;28;20488;-74
2023/01/13 04:20:45;;;;;;;3.00;1.23;;;13.20;35.30;;;;;;5068807;28;21038;-74
2023/01/13 04:23:12;;;;;;;2.93;1.20;;;12.90;35.00;;;;;;5064884;28;20460;-74
2023/01/13 04:25:39;;;;;;;3.00;1.20;;;12.90;35.50;;;;;;5069265;28;20841;-75
2023/01/13 04:28:04;;;;;;;3.37;1.47;;;13.10;35.20;;;;;;5069917;28;20565;-74
2023/01/13 04:30:30;;;;;;;2.90;1.10;;;13.10;35.30;;;;;;5069801;28;20983;-74
2023/01/13 04:32:56;;;;;;;2.90;1.03;;;13.30;35.80;;;;;;5064824;28;20253;-75
2023/01/13 04:35:21;;;;;;;3.03;1.20;;;13.40;34.40;;;;;;5070901;28;20172;-74
2023/01/13 04:37:47;;;;;;;3.00;1.20;;;13.60;33.60;;;;;;5068699;28;20261;-74
2023/01/13 04:40:13;;;;;;;2.90;1.10;;;13.20;34.30;;;;;;5070650;28;20177;-74
2023/01/13 04:42:38;;;;;;;3.00;1.20;;;13.20;34.40;;;;;;5069925;28;20735;-74
2023/01/13 04:45:04;;;;;;;3.00;1.20;;;13.40;33.90;;;;;;5070261;28;20183;-74
2023/01/13 04:47:30;;;;;;;2.90;1.10;;;13.60;34.00;;;;;;5062937;28;20189;-74
2023/01/13 04:49:55;;;;;;;3.10;1.30;;;13.50;33.70;;;;;;5068925;28;20802;-74
2023/01/13 04:52:21;;;;;;;2.90;1.10;;;13.90;33.20;;;;;;5068673;28;20295;-74
2023/01/13 04:54:47;;;;;;;3.10;1.30;;;13.80;33.00;;;;;;5070694;28;20176;-74
2023/01/13 04:57:12;;;;;;;2.90;1.10;;;13.60;33.20;;;;;;5068919;28;20186;-74
2023/01/13 04:59:40;;;;;;;3.00;1.20;;;13.80;32.80;;;;;;5070369;28;20227;-74
2023/01/13 05:02:07;;;;;;;2.90;1.10;;;13.90;32.50;;;;;;5069873;28;20283;-74
2023/01/13 05:04:33;;;;;;;2.97;1.10;;;13.70;33.10;;;;;;5065240;28;20805;-74
2023/01/13 05:06:59;;;;;;;2.90;1.20;;;13.70;33.50;;;;;;5070624;28;20416;-74
2023/01/13 05:09:24;;;;;;;2.90;1.10;;;13.30;33.80;;;;;;5069025;28;20439;-74
2023/01/13 05:17:21;;;;;;;2.90;1.10;;;13.70;33.20;;;;;;5070514;28;20437;-74
2023/01/13 05:19:47;;;;;;;2.97;1.20;;;13.70;33.30;;;;;;5067056;28;20516;-74
2023/01/13 05:27:41;;;;;;;3.00;1.20;;;12.90;35.00;;;;;;5070343;28;20773;-74
2023/01/13 05:30:07;;;;;;;3.00;1.17;;;13.10;35.20;;;;;;5068056;28;20439;-74
2023/01/13 05:32:33;;;;;;;3.03;1.30;;;12.90;35.30;;;;;;5070216;28;20552;-74
2023/01/13 05:34:58;;;;;;;3.00;1.20;;;13.00;35.10;;;;;;5069721;28;20572;-74
2023/01/13 05:37:26;;;;;;;3.00;1.30;;;13.50;35.60;;;;;;5067593;28;20180;-74
2023/01/13 05:45:25;;;;;;;3.00;1.10;;;13.40;34.70;;;;;;5073898;28;20413;-74
2023/01/13 05:47:50;;;;;;;3.00;1.20;;;13.50;35.40;;;;;;5073841;28;20896;-74
2023/01/13 05:50:16;;;;;;;3.00;1.20;;;13.40;34.90;;;;;;5072024;28;20184;-74
2023/01/13 05:52:42;;;;;;;2.97;1.10;;;12.90;35.30;;;;;;5067064;28;20199;-74
2023/01/13 05:55:09;;;;;;;3.00;1.20;;;12.70;36.30;;;;;;5073720;28;20425;-74
2023/01/13 05:57:34;;;;;;;3.03;1.20;;;12.80;36.00;;;;;;5073883;28;20203;-74
2023/01/13 06:00:00;;;;;;;3.00;1.20;;;13.00;35.40;;;;;;5071529;28;20880;-74
2023/01/13 06:02:25;;;;;;;2.97;1.10;;;12.80;36.50;;;;;;5070975;28;20665;-74
2023/01/13 06:04:51;;;;;;;3.00;1.20;;;12.80;36.10;;;;;;5073281;28;20236;-73
2023/01/13 06:07:17;;;;;;;3.10;1.30;;;12.40;37.60;;;;;;5073601;28;20259;-74
2023/01/13 06:09:42;;;;;;;2.90;1.10;;;12.80;37.10;;;;;;5072778;28;20601;-74
2023/01/13 06:12:11;;;;;;;2.93;1.10;;;13.00;36.00;;;;;;5062025;28;20203;-74
2023/01/13 06:14:39;;;;;;;3.10;1.30;;;13.30;35.40;;;;;;5072214;28;20745;-74
2023/01/13 06:17:10;;;;;;;3.00;1.20;;;12.90;36.50;;;;;;5073166;28;20460;-74
2023/01/13 06:19:35;;;;;;;3.00;1.20;;;12.90;36.10;;;;;;5073358;28;20503;-74
2023/01/13 06:22:25;;;;;;;3.10;1.30;;;13.10;36.10;;;;;;5070468;28;20460;-74
2023/01/13 06:24:52;;;;;;;3.00;1.13;;;13.20;35.50;;;;;;5066079;28;20435;-74
2023/01/13 06:27:20;;;;;;;3.00;1.20;;;12.80;36.70;;;;;;5071722;28;20857;-73
2023/01/13 06:29:45;;;;;;;2.90;1.10;;;13.10;36.00;;;;;;5072716;28;20426;-74
2023/01/13 06:32:37;;;;;;;2.97;1.20;;;13.10;36.00;;;;;;5069933;28;20451;-74
2023/01/13 06:35:07;;;;;;;3.00;1.20;;;13.10;36.70;;;;;;5068960;28;20548;-75
2023/01/13 06:37:34;;;;;;;3.10;1.33;;;12.80;37.00;;;;;;5067636;28;20552;-73
2023/01/13 06:40:01;;;;;;;2.90;1.10;;;13.00;36.90;;;;;;5072145;28;20504;-74
2023/01/13 06:45:14;;;;;;;2.90;1.10;;;13.50;35.60;;;;;;5069016;28;20971;-73
2023/01/13 06:47:40;;;;;;;3.10;1.30;;;13.10;36.10;;;;;;5072830;28;20405;-74
2023/01/13 06:50:06;;;;;;;2.93;1.17;;;13.00;36.30;;;;;;5072648;28;20167;-74
2023/01/13 06:52:31;;;;;;;3.10;1.30;;;13.10;36.30;;;;;;5072734;28;20422;-74
2023/01/13 06:54:57;;;;;;;3.00;1.20;;;13.20;35.80;;;;;;5065936;28;20181;-74
2023/01/13 06:57:23;;;;;;;3.00;1.20;;;13.30;36.40;;;;;;5069659;28;20242;-74
2023/01/13 06:59:49;;;;;;;3.00;1.20;;;13.10;36.30;;;;;;5070844;28;20257;-74
2023/01/13 07:02:14;;;;;;;3.00;1.20;;;12.80;36.90;;;;;;5070859;28;20439;-74
2023/01/13 07:04:40;;;;;;;3.00;1.20;;;13.10;36.40;;;;;;5069536;28;20272;-74
2023/01/13 07:07:07;;;;;;;3.00;1.20;;;13.20;36.00;;;;;;5070952;28;20180;-74
2023/01/13 07:09:33;;;;;;;3.03;1.30;;;13.50;35.60;;;;;;5072166;28;20223;-74
2023/01/13 07:11:58;;;;;;;2.90;1.10;;;13.60;35.30;;;;;;5071931;28;20423;-74
2023/01/13 07:17:25;;;;;;;3.03;1.27;;;13.40;35.50;;;;;;5045074;28;20188;-74
2023/01/13 07:19:51;;;;;;;3.00;1.10;;;13.70;35.10;;;;;;5066196;28;20528;-74
2023/01/13 07:22:17;;;;;;;2.97;1.20;;;13.80;35.90;;;;;;5071529;28;20199;-74
2023/01/13 07:24:43;;;;;;;3.00;1.30;;;13.20;35.40;;;;;;5070821;28;20417;-74
2023/01/13 07:27:08;;;;;;;3.00;1.20;;;13.00;36.40;;;;;;5070060;28;20193;-74
2023/01/13 07:29:34;;;;;;;3.07;1.20;;;12.80;36.90;;;;;;5071517;28;20219;-74
2023/01/13 07:32:00;;;;;;;3.00;1.20;;;13.10;36.30;;;;;;5071652;28;20662;-74
2023/01/13 07:34:25;;;;;;;3.00;1.13;;;13.30;35.40;;;;;;5070021;28;20201;-74
2023/01/13 07:36:51;;;;;;;3.00;1.20;;;13.50;35.50;;;;;;5067733;28;20209;-74
2023/01/13 07:39:16;;;;;;;2.90;1.10;;;13.40;35.50;;;;;;5071641;28;20220;-74
2023/01/13 07:44:26;;;;;;;3.10;1.30;;;13.20;36.90;;;;;;5071956;28;20177;-74
2023/01/13 07:46:52;;;;;;;3.10;1.30;;;13.10;36.50;;;;;;5068775;28;20432;-73
2023/01/13 07:49:17;;;;;;;3.00;1.20;;;13.00;36.60;;;;;;5070306;28;20176;-74
2023/01/13 07:51:43;;;;;;;2.90;1.10;;;13.20;36.20;;;;;;5071303;28;20236;-74
2023/01/13 07:54:08;;;;;;;2.93;1.10;;;13.20;36.60;;;;;;5071385;28;20164;-74
2023/01/13 07:56:34;;;;;;;3.10;1.30;;;13.50;35.60;;;;;;5070954;28;20189;-74
2023/01/13 07:59:00;;;;;;;2.97;1.10;;;13.70;34.90;;;;;;5067188;28;20206;-75
2023/01/13 08:01:30;;;;;;;2.90;1.10;;;13.90;34.60;;;;;;5070975;28;20191;-74
2023/01/13 08:03:57;;;;;;;3.00;1.20;;;13.20;35.30;;;;;;5070156;28;20410;-74
2023/01/13 08:06:24;;;;;;;3.00;1.20;;;13.00;36.60;;;;;;5071070;28;20560;-74
2023/01/13 08:08:49;;;;;;;3.10;1.23;;;13.20;35.80;;;;;;5066875;28;20472;-74
2023/01/13 08:11:15;;;;;;;3.00;1.10;;;13.00;37.30;;;;;;5069810;28;20535;-74
2023/01/13 08:13:41;;;;;;;3.00;1.20;;;13.30;37.80;;;;;;5069931;28;20184;-74
2023/01/13 08:16:10;;;;;;;3.00;1.20;;;13.00;36.90;;;;;;5070729;28;20240;-74
2023/01/13 08:18:37;;;;;;;3.00;1.20;;;13.10;37.30;;;;;;5069217;28;20660;-74
2023/01/13 08:21:06;;;;;;;3.00;1.20;;;13.20;36.30;;;;;;5066533;28;20527;-74
2023/01/13 08:23:32;;;;;;;2.90;1.20;;;13.00;37.00;;;;;;5069683;28;20759;-74
2023/01/13 08:26:04;;;;;;;2.90;1.20;;;12.90;38.20;;;;;;5069785;28;20965;-74
2023/01/13 08:28:30;;;;;;;3.00;1.20;;;13.10;36.80;;;;;;5068642;28;20430;-74
2023/01/13 08:30:58;;;;;;;2.87;1.10;;;13.50;35.60;;;;;;5063902;28;20868;-74
2023/01/13 08:33:24;;;;;;;3.00;1.20;;;13.30;36.30;;;;;;5071048;28;20419;-74
2023/01/13 08:35:52;;;;;;;2.90;1.10;;;14.00;36.10;;;;;;5069339;28;20840;-74
2023/01/13 08:38:17;;;;;;;3.10;1.30;;;13.70;36.60;;;;;;5067145;28;20244;-74
2023/01/13 08:40:43;;;;;;;3.00;1.10;;;13.40;37.20;;;;;;5069824;28;20429;-74
2023/01/13 08:43:09;;;;;;;3.00;1.20;;;13.40;38.10;;;;;;5070226;28;20556;-74
2023/01/13 08:45:35;;;;;;;2.90;1.10;;;13.70;37.30;;;;;;5069886;28;20723;-74
2023/01/13 08:48:00;;;;;;;2.90;1.10;;;13.50;37.60;;;;;;5067851;28;20234;-74
2023/01/13 08:50:26;;;;;;;3.20;1.30;;;13.50;37.10;;;;;;5068226;28;20415;-74
2023/01/13 08:52:52;;;;;;;2.97;1.20;;;13.70;36.80;;;;;;5066416;28;20508;-74
2023/01/13 08:55:18;;;;;;;3.10;1.30;;;13.80;36.20;;;;;;5070913;28;20179;-74
2023/01/13 08:57:44;;;;;;;3.00;1.20;;;13.70;36.90;;;;;;5070058;28;20484;-74
2023/01/13 09:00:10;;;;;;;3.10;1.30;;;13.80;40.30;;;;;;5064087;28;20462;-74
2023/01/13 09:02:37;;;;;;;3.00;1.20;;;13.30;40.20;;;;;;5069897;28;20630;-74
2023/01/13 09:05:06;;;;;;;3.00;1.10;;;13.30;40.80;;;;;;5064591;28;20526;-74
2023/01/13 09:07:33;;;;;;;2.90;1.10;;;13.10;40.60;;;;;;5070243;28;20429;-73
2023/01/13 09:09:58;;;;;;;3.00;1.20;;;12.60;42.10;;;;;;5071942;28;21017;-82
2023/01/13 09:15:09;;;;;;;2.97;1.13;;;12.30;43.20;;;;;;5067411;28;20190;-76
2023/01/13 09:17:35;;;;;;;2.93;1.20;;;12.50;42.60;;;;;;5071530;28;20819;-74
2023/01/13 09:20:00;;;;;;;3.10;1.33;;;12.90;42.30;;;;;;5068979;28;20462;-75
2023/01/13 09:22:26;;;;;;;2.90;1.20;;;12.80;41.20;;;;;;5075030;28;20192;-76
2023/01/13 09:24:53;;;;;;;3.03;1.23;;;13.10;42.30;;;;;;5072299;28;20236;-75
2023/01/13 09:27:18;;;;;;;3.00;1.20;;;12.40;42.00;;;;;;5066990;28;20231;-76
2023/01/13 09:29:44;;;;;;;2.90;1.10;;;13.00;41.30;;;;;;5069824;28;20866;-76
2023/01/13 09:32:11;;;;;;;3.00;1.20;;;13.30;40.10;;;;;;5072895;28;20283;-75
2023/01/13 09:37:20;;;;;;;2.90;1.10;;;13.30;39.90;;;;;;5068463;28;20444;-76
2023/01/13 09:39:46;;;;;;;2.93;1.20;;;13.00;41.50;;;;;;5069278;28;20833;-76
2023/01/13 09:45:42;;;;;;;2.97;1.20;;;12.50;43.20;;;;;;5061993;28;20195;-77
2023/01/13 09:48:50;;;;;;;2.90;1.20;;;12.60;42.60;;;;;;5084613;28;20410;-74
2023/01/13 09:51:29;;;;;;;2.90;1.20;;;13.20;41.10;;;;;;5071101;28;20452;-75
2023/01/13 09:54:40;;;;;;;2.90;1.20;;;13.00;41.20;;;;;;5063135;28;20423;-75
2023/01/13 09:57:14;;;;;;;2.93;1.20;;;12.40;43.30;;;;;;5065714;28;20864;-74
2023/01/13 09:59:41;;;;;;;3.00;1.20;;;12.50;43.30;;;;;;5071434;28;20472;-75
2023/01/13 10:02:29;;;;;;;2.90;1.10;;;12.50;43.00;;;;;;5064896;28;20523;-75
2023/01/13 10:05:02;;;;;;;3.00;1.30;;;12.80;42.40;;;;;;5072042;28;20469;-77
2023/01/13 10:07:30;;;;;;;2.93;1.20;;;12.60;42.70;;;;;;5068773;28;20465;-74
2023/01/13 10:09:58;;;;;;;2.90;1.20;;;12.70;42.60;;;;;;5072112;28;20937;-74
2023/01/13 10:15:15;;;;;;;3.00;1.20;;;13.00;42.80;;;;;;5064671;28;20448;-74
2023/01/13 10:17:47;;;;;;;3.00;1.27;;;12.90;42.30;;;;;;5067883;28;20459;-75
2023/01/13 10:20:38;;;;;;;3.20;1.40;;;12.90;43.20;;;;;;5070616;28;20513;-74
2023/01/13 10:23:48;;;;;;;2.90;1.20;;;12.00;46.50;;;;;;5064586;28;20463;-74
2023/01/13 10:26:33;;;;;;;2.90;1.20;;;11.60;49.40;;;;;;5071604;28;20445;-73
2023/01/13 10:28:58;;;;;;;2.87;1.10;;;11.60;50.10;;;;;;5065384;28;20508;-74
2023/01/13 10:31:25;;;;;;;2.90;1.10;;;12.00;49.20;;;;;;5068485;28;20562;-73
2023/01/13 10:34:02;;;;;;;2.80;1.10;;;12.70;46.60;;;;;;5072778;28;20422;-74
2023/01/13 10:36:28;;;;;;;2.90;1.20;;;12.40;48.50;;;;;;5070857;28;20445;-74
2023/01/13 10:39:15;;;;;;;2.97;1.30;;;12.50;49.20;;;;;;5075042;28;20474;-72
2023/01/13 10:41:42;;;;;;;2.90;1.10;;;12.20;50.60;;;;;;5079566;28;20457;-73
2023/01/13 10:44:16;;;;;;;2.90;1.20;;;11.70;51.40;;;;;;5072705;28;20553;-73
2023/01/13 10:46:54;;;;;;;2.97;1.20;;;11.90;51.10;;;;;;5071175;28;20445;-74
2023/01/13 10:49:30;;;;;;;2.90;1.10;;;12.30;51.20;;;;;;5069124;28;20437;-73
2023/01/13 10:51:56;;;;;;;2.80;1.10;;;12.50;48.80;;;;;;5066331;28;20465;-73
2023/01/13 10:54:23;;;;;;;2.93;1.20;;;13.30;47.60;;;;;;5071969;28;20412;-74
2023/01/13 10:57:09;;;;;;;2.87;1.13;;;13.60;45.70;;;;;;5069977;28;20539;-74
2023/01/13 10:59:35;;;;;;;2.90;1.20;;;13.60;45.40;;;;;;5064717;28;20461;-74
2023/01/13 11:02:15;;;;;;;2.90;1.37;;;13.90;44.60;;;;;;5067588;28;20464;-73
2023/01/13 11:04:52;;;;;;;2.90;1.20;;;14.10;43.30;;;;;;5064593;28;20183;-73
2023/01/13 11:07:45;;;;;;;3.00;1.30;;;13.90;44.50;;;;;;5068057;28;20439;-74
2023/01/13 11:10:26;;;;;;;3.03;1.33;;;14.10;43.30;;;;;;5067833;28;20508;-73
2023/01/13 11:12:57;;;;;;;3.00;1.20;;;14.20;42.60;;;;;;5072255;28;20959;-73
2023/01/13 11:15:32;;;;;;;3.00;1.20;;;13.60;41.10;;;;;;5069955;28;20436;-73
2023/01/13 11:18:05;;;;;;;3.00;1.20;;;13.10;45.80;;;;;;5071142;28;20827;-73
2023/01/13 11:20:39;;;;;;;2.90;1.10;;;12.50;49.60;;;;;;5071249;28;20441;-73
2023/01/13 11:23:35;;;;;;;2.90;1.17;;;10.90;47.30;;;;;;5070302;28;20536;-72
2023/01/13 11:26:20;;;;;;;2.80;1.20;;;9.90;48.40;;;;;;5071945;28;20451;-73
2023/01/13 11:28:54;;;;;;;2.80;1.10;;;9.10;54.00;;;;;;5070908;28;20523;-73
2023/01/13 11:31:26;;;;;;;2.70;1.20;;;8.80;61.00;;;;;;5068211;28;20444;-73
2023/01/13 11:34:19;;;;;;;2.60;1.10;;;8.70;71.10;;;;;;5070241;28;20438;-73
2023/01/13 11:36:50;;;;;;;2.60;1.20;;;8.30;74.20;;;;;;5061070;28;20244;-73
2023/01/13 11:39:28;;;;;;;2.45;1.20;;;8.20;73.20;;;;;;5070618;28;20229;-72
2023/01/13 11:42:23;;;;;;;2.25;1.08;;;8.20;73.30;;;;;;5070580;28;20225;-73
2023/01/13 11:45:03;;;;;;;2.40;1.20;;;8.20;72.10;;;;;;5067122;28;20187;-72
2023/01/13 11:47:30;;;;;;;2.30;1.30;;;7.90;74.10;;;;;;5071695;28;20174;-72
2023/01/13 11:49:56;;;;;;;2.22;1.17;;;7.70;77.00;;;;;;5071607;28;20179;-72
2023/01/13 11:52:41;;;;;;;2.20;1.10;;;7.60;81.70;;;;;;5068662;28;20693;-71
2023/01/13 11:55:33;;;;;;;2.20;1.30;;;7.50;75.00;;;;;;5061118;28;20183;-72
2023/01/13 11:58:31;;;;;;;2.30;1.23;;;7.00;81.10;;;;;;5065585;28;20179;-72
2023/01/13 12:01:03;;;;;;;2.10;1.20;;;7.20;80.30;;;;;;5073152;28;20237;-72
2023/01/13 12:03:45;;;;;;;1.92;1.10;;;7.50;77.70;;;;;;5072562;28;20251;-72
2023/01/13 12:06:26;;;;;;;2.05;1.15;;;7.40;68.70;;;;;;5061721;28;20651;-72
2023/01/13 12:09:02;;;;;;;2.00;1.10;;;7.60;67.50;;;;;;5071868;28;20183;-73
2023/01/13 12:15:21;;;;;;;2.08;1.10;;;8.00;66.90;;;;;;5059772;28;20738;-73
2023/01/13 12:18:13;;;;;;;2.05;1.10;;;8.70;59.80;;;;;;5052178;28;20207;-73
2023/01/13 12:21:11;;;;;;;2.30;1.20;;;8.60;58.00;;;;;;5043285;28;20195;-73
2023/01/13 12:23:45;;;;;;;2.10;1.15;;;8.70;58.00;;;;;;5068612;28;20172;-73
2023/01/13 12:26:15;;;;;;;3.33;1.73;;;9.00;56.40;;;;;;5053228;28;20225;-74
2023/01/13 12:28:52;;;;;;;2.20;1.30;;;9.30;54.50;;;;;;5056651;28;20189;-73
2023/01/13 12:31:19;;;;;;;2.15;1.20;;;9.50;56.50;;;;;;5051603;28;20202;-73
2023/01/13 12:33:57;;;;;;;2.10;1.10;;;9.90;50.90;;;;;;5051605;28;20706;-74
2023/01/13 12:36:32;;;;;;;2.10;1.20;;;9.90;52.40;;;;;;5059834;28;20201;-73
2023/01/13 12:39:20;;;;;;;2.10;1.15;;;9.90;54.20;;;;;;5055822;28;20302;-73
2023/01/13 12:45:25;;;;;;;2.10;1.10;;;9.50;53.30;;;;;;5051627;28;20248;-72
2023/01/13 12:47:52;;;;;;;2.17;1.15;;;9.20;51.90;;;;;;5005519;28;20187;-72
2023/01/13 12:50:25;;;;;;;2.10;1.10;;;9.50;52.90;;;;;;5008454;28;20198;-72
2023/01/13 12:52:55;;;;;;;2.13;1.10;;;9.70;52.60;;;;;;5012779;28;20208;-73
2023/01/13 12:55:31;;;;;;;3.38;1.67;;;10.00;52.40;;;;;;5011093;28;20249;-73
2023/01/13 12:58:05;;;;;;;2.20;1.20;;;10.20;48.60;;;;;;5012481;28;20367;-73
2023/01/13 13:00:37;;;;;;;2.20;1.20;;;10.20;46.40;;;;;;5012471;28;20226;-73
2023/01/13 13:03:11;;;;;;;2.17;1.10;;;9.80;47.90;;;;;;5012936;28;20271;-73
2023/01/13 13:06:01;;;;;;;2.20;1.10;;;9.60;50.30;;;;;;5009987;28;20198;-73
2023/01/13 13:08:58;;;;;;;2.90;1.50;;;9.90;47.40;;;;;;5012566;28;20207;-73
2023/01/13 13:14:56;;;;;;;2.30;1.10;;;10.10;46.40;;;;;;5012876;28;20228;-73
2023/01/13 13:17:28;;;;;;;2.20;1.10;;;10.50;47.60;;;;;;5006750;28;20205;-73
2023/01/13 13:19:55;;;;;;;2.30;1.10;;;10.70;45.20;;;;;;5074000;28;20248;-72
2023/01/13 13:22:40;;;;;;;2.47;1.10;;;10.60;44.60;;;;;;5074103;28;20203;-73
2023/01/13 13:25:21;;;;;;;2.60;1.20;;;11.00;43.00;;;;;;5074746;28;20578;-72
2023/01/13 13:28:07;;;;;;;2.40;1.20;;;10.60;44.10;;;;;;5072476;28;20384;-72
2023/01/13 13:30:36;;;;;;;2.50;1.10;;;10.20;45.40;;;;;;5073575;28;20500;-72
2023/01/13 13:33:26;;;;;;;2.50;1.20;;;10.70;45.40;;;;;;5074015;28;20240;-72
2023/01/13 13:36:22;;;;;;;2.40;1.10;;;11.20;42.80;;;;;;5074129;28;20175;-73
2023/01/13 13:47:20;;;;;;;2.70;1.20;;;11.50;42.50;;;;;;5054224;28;20394;-72
2023/01/13 13:49:51;;;;;;;2.90;1.30;;;11.60;40.50;;;;;;5071504;28;20440;-72
2023/01/13 13:52:36;;;;;;;2.70;1.13;;;11.20;42.10;;;;;;5073497;28;20202;-72
2023/01/13 13:55:16;;;;;;;2.63;1.10;;;11.40;41.20;;;;;;5071328;28;20510;-71
2023/01/13 13:57:48;;;;;;;2.87;1.20;;;11.50;40.70;;;;;;5073712;28;20417;-71
2023/01/13 14:00:14;;;;;;;4.03;1.97;;;12.50;39.70;;;;;;5073458;28;20492;-72
2023/01/13 14:02:47;;;;;;;3.00;1.30;;;13.00;35.90;;;;;;5068926;28;20495;-71
2023/01/13 14:05:30;;;;;;;2.93;1.20;;;12.90;35.00;;;;;;5073537;28;20179;-72
2023/01/13 14:08:13;;;;;;;3.13;1.40;;;12.90;36.80;;;;;;5073781;28;20406;-72
2023/01/13 14:10:41;;;;;;;2.90;1.27;;;12.80;37.60;;;;;;5073642;28;20421;-72
2023/01/13 14:13:22;;;;;;;2.90;1.10;;;11.80;39.10;;;;;;5070616;28;20457;-72
2023/01/13 14:16:03;;;;;;;2.90;1.10;;;12.00;38.00;;;;;;5067916;28;20436;-72
2023/01/13 14:18:34;;;;;;;2.90;1.10;;;12.40;36.70;;;;;;5072617;28;20456;-71
2023/01/13 14:21:15;;;;;;;2.90;1.10;;;11.90;37.60;;;;;;5073103;28;20421;-72
2023/01/13 14:23:52;;;;;;;2.97;1.20;;;12.10;38.80;;;;;;5073070;28;20468;-72